Time;durP1;ratioP1;P1;durP2;ratioP2;P2;SDS_P1;SDS_P2;PMS_P1;PMS_P2;Temp;Humidity;BMP_temperature;BMP_pressure;BME280_temperature;BME280_humidity;BME280_pressure;Samples;Min_cycle;Max_cycle;Signal;HPM_P1;HPM_P2
2022/01/08 00:01:59;;;;;;;25.40;11.80;;;;;;;-2.51;69.20;100452.79;87499;1285;77914;-69
2022/01/08 00:04:08;;;;;;;25.90;12.40;;;;;;;-2.55;68.85;100447.11;87533;1285;81060;-69
2022/01/08 00:06:14;;;;;;;27.10;11.90;;;;;;;-2.59;69.21;100446.32;87499;1285;97757;-69
2022/01/08 00:08:24;;;;;;;23.40;12.10;;;;;;;-2.64;69.20;100446.11;87511;1285;87720;-68
2022/01/08 00:10:32;;;;;;;25.80;11.90;;;;;;;-2.67;69.02;100442.49;87499;1285;95729;-69
2022/01/08 00:12:41;;;;;;;27.00;12.20;;;;;;;-2.70;69.10;100441.05;87303;1287;79425;-70
2022/01/08 00:14:47;;;;;;;26.50;12.40;;;;;;;-2.73;69.27;100439.70;87390;1286;82044;-69
2022/01/08 00:16:58;;;;;;;25.00;11.60;;;;;;;-2.77;69.26;100437.52;87538;1285;96961;-69
2022/01/08 00:19:07;;;;;;;26.20;12.00;;;;;;;-2.79;68.97;100438.89;87539;1284;88363;-67
2022/01/08 00:21:14;;;;;;;23.90;11.30;;;;;;;-2.81;69.07;100436.95;87516;1285;95347;-67
2022/01/08 00:23:23;;;;;;;25.10;11.90;;;;;;;-2.82;69.05;100438.58;87481;1285;80753;-66
2022/01/08 00:25:29;;;;;;;28.80;12.30;;;;;;;-2.84;68.99;100434.12;87350;1287;80829;-68
2022/01/08 00:27:39;;;;;;;23.40;11.40;;;;;;;-2.85;69.26;100433.33;87353;1287;96357;-69
2022/01/08 00:29:44;;;;;;;27.00;12.30;;;;;;;-2.88;69.39;100427.04;87490;1285;88855;-67
2022/01/08 00:31:54;;;;;;;25.20;11.40;;;;;;;-2.89;69.13;100425.67;87496;1285;94356;-68
2022/01/08 00:34:00;;;;;;;25.40;12.20;;;;;;;-2.91;69.45;100421.25;87483;1285;80559;-66
2022/01/08 00:36:09;;;;;;;27.70;11.60;;;;;;;-2.91;69.16;100426.87;87512;1285;81048;-67
2022/01/08 00:38:15;;;;;;;26.00;11.70;;;;;;;-2.91;69.01;100425.13;87524;1285;99831;-67
2022/01/08 00:40:23;;;;;;;21.20;11.10;;;;;;;-2.94;69.38;100425.66;87533;1285;88709;-68
2022/01/08 00:42:29;;;;;;;22.90;11.00;;;;;;;-2.98;69.36;100421.51;87506;1285;92009;-68
2022/01/08 00:44:36;;;;;;;24.80;11.90;;;;;;;-3.02;69.24;100418.60;87505;1285;79332;-68
2022/01/08 00:46:41;;;;;;;24.30;11.90;;;;;;;-3.07;69.40;100414.32;87541;1285;83631;-68
2022/01/08 00:48:48;;;;;;;25.30;12.10;;;;;;;-3.08;69.31;100416.20;87498;1285;98609;-67
2022/01/08 00:50:54;;;;;;;25.30;11.40;;;;;;;-3.09;69.70;100412.42;87547;1285;88268;-69
2022/01/08 00:53:01;;;;;;;25.70;11.00;;;;;;;-3.07;69.19;100406.83;87500;1285;95030;-69
2022/01/08 00:55:09;;;;;;;26.80;12.00;;;;;;;-2.99;69.28;100413.45;87514;1285;79431;-68
2022/01/08 00:57:15;;;;;;;25.70;12.30;;;;;;;-2.91;69.32;100405.19;87549;1285;80324;-66
2022/01/08 00:59:21;;;;;;;27.00;11.80;;;;;;;-2.85;69.51;100403.58;87503;1285;98360;-68
2022/01/08 01:01:27;;;;;;;27.20;12.40;;;;;;;-2.82;69.61;100410.57;87543;1285;87831;-67
2022/01/08 01:03:40;;;;;;;24.70;11.90;;;;;;;-2.79;69.26;100404.71;87500;1285;95965;-69
2022/01/08 01:05:49;;;;;;;23.70;12.00;;;;;;;-2.79;69.39;100403.30;87485;1285;76630;-69
2022/01/08 01:07:55;;;;;;;27.80;13.00;;;;;;;-2.82;69.31;100401.05;87566;1285;82540;-69
2022/01/08 01:10:05;;;;;;;23.40;11.40;;;;;;;-2.86;69.29;100397.80;87517;1285;98182;-69
2022/01/08 01:12:13;;;;;;;25.40;12.70;;;;;;;-2.87;69.03;100393.82;87497;1285;89347;-70
2022/01/08 01:14:21;;;;;;;25.10;12.40;;;;;;;-2.87;68.95;100396.33;87526;1285;94572;-68
2022/01/08 01:16:31;;;;;;;25.20;12.00;;;;;;;-2.90;68.68;100392.27;87505;1285;77912;-67
2022/01/08 01:18:39;;;;;;;23.60;11.40;;;;;;;-2.91;68.30;100392.52;87503;1285;81981;-68
2022/01/08 01:20:49;;;;;;;23.80;11.50;;;;;;;-2.95;68.41;100380.80;87320;1286;100114;-69
2022/01/08 01:23:04;;;;;;;26.00;11.00;;;;;;;-2.97;68.16;100381.62;87514;1285;89447;-70
2022/01/08 01:25:18;;;;;;;24.90;10.70;;;;;;;-3.02;68.27;100380.34;87526;1285;95889;-70
2022/01/08 01:30:01;;;;;;;22.90;10.80;;;;;;;-3.18;68.73;100381.48;86996;1291;80070;-67
2022/01/08 01:42:16;;;;;;;23.90;12.40;;;;;;;-3.46;68.89;100367.16;87464;1285;82791;-70
2022/01/08 01:47:01;;;;;;;25.00;11.10;;;;;;;-3.61;69.03;100362.00;87535;1285;88835;-68
2022/01/08 01:49:11;;;;;;;22.90;11.00;;;;;;;-3.68;69.18;100361.24;87515;1285;95184;-70
2022/01/08 01:51:22;;;;;;;29.60;11.80;;;;;;;-3.72;69.34;100364.36;87522;1285;78514;-68
2022/01/08 01:53:31;;;;;;;25.50;11.50;;;;;;;-3.74;69.24;100363.57;87526;1285;83780;-67
2022/01/08 01:55:37;;;;;;;25.80;11.80;;;;;;;-3.77;69.41;100365.52;87513;1285;100237;-68
2022/01/08 01:57:44;;;;;;;26.10;11.60;;;;;;;-3.79;69.44;100362.30;87539;1285;87977;-67
2022/01/08 01:59:50;;;;;;;27.20;11.70;;;;;;;-3.82;69.53;100360.05;87518;1285;94127;-70
2022/01/08 02:01:56;;;;;;;25.00;12.30;;;;;;;-3.84;69.44;100361.41;87497;1285;82294;-69
2022/01/08 02:04:06;;;;;;;23.70;11.20;;;;;;;-3.87;69.72;100357.79;87550;1285;81613;-67
2022/01/08 02:06:12;;;;;;;25.20;11.50;;;;;;;-3.88;69.38;100356.41;87516;1285;97651;-67
2022/01/08 02:08:18;;;;;;;25.20;11.10;;;;;;;-3.89;69.71;100354.20;87539;1285;88851;-67
2022/01/08 02:10:25;;;;;;;24.40;11.30;;;;;;;-3.94;69.51;100355.06;87534;1285;96116;-67
2022/01/08 02:12:34;;;;;;;26.60;11.20;;;;;;;-4.01;69.66;100353.39;87514;1285;82103;-70
2022/01/08 02:14:43;;;;;;;26.20;11.40;;;;;;;-4.02;69.86;100351.39;87550;1285;81631;-69
2022/01/08 02:16:48;;;;;;;27.90;11.90;;;;;;;-4.00;69.70;100342.98;87507;1285;100138;-70
2022/01/08 02:18:54;;;;;;;21.90;10.60;;;;;;;-3.93;69.75;100338.27;87503;1285;88856;-69
2022/01/08 02:21:02;;;;;;;21.60;10.60;;;;;;;-3.89;70.06;100331.13;87514;1285;95062;-69
2022/01/08 02:23:11;;;;;;;26.90;12.00;;;;;;;-3.84;70.19;100331.54;87527;1285;78826;-70
2022/01/08 02:25:24;;;;;;;27.40;11.40;;;;;;;-3.81;70.13;100334.50;87556;1285;81607;-67
2022/01/08 02:27:30;;;;;;;21.90;9.70;;;;;;;-3.76;70.02;100336.47;87506;1285;99047;-68
2022/01/08 02:29:36;;;;;;;24.10;10.80;;;;;;;-3.72;70.00;100337.77;87511;1285;90086;-69
2022/01/08 02:31:52;;;;;;;22.60;10.40;;;;;;;-3.71;70.00;100337.20;87480;1285;95785;-67
2022/01/08 02:33:58;;;;;;;23.00;10.50;;;;;;;-3.73;69.87;100332.52;87469;1285;78052;-71
2022/01/08 02:36:08;;;;;;;25.10;10.60;;;;;;;-3.74;69.86;100334.41;87503;1285;83165;-69
2022/01/08 02:38:14;;;;;;;26.70;11.40;;;;;;;-3.80;69.93;100331.61;87496;1285;99761;-71
2022/01/08 02:40:23;;;;;;;23.40;11.00;;;;;;;-3.84;69.90;100332.91;87541;1285;88147;-68
2022/01/08 02:42:37;;;;;;;26.30;11.40;;;;;;;-3.90;69.58;100333.19;87509;1285;95194;-69
2022/01/08 02:44:45;;;;;;;25.90;11.20;;;;;;;-3.98;69.74;100328.40;87508;1285;80643;-69
2022/01/08 02:46:51;;;;;;;24.40;10.20;;;;;;;-4.06;69.90;100324.19;87515;1284;82175;-69
2022/01/08 02:48:57;;;;;;;22.50;10.50;;;;;;;-4.10;69.82;100321.46;87503;1285;99102;-67
2022/01/08 02:51:06;;;;;;;24.40;11.50;;;;;;;-4.12;70.02;100313.00;87528;1285;88490;-68
2022/01/08 02:53:15;;;;;;;23.10;10.50;;;;;;;-4.19;69.87;100312.17;87508;1285;96143;-68
2022/01/08 02:55:24;;;;;;;21.60;10.30;;;;;;;-4.23;69.99;100309.48;87500;1285;79004;-70
2022/01/08 02:57:30;;;;;;;24.20;11.20;;;;;;;-4.30;70.06;100307.80;87509;1285;83111;-69
2022/01/08 02:59:36;;;;;;;25.60;10.90;;;;;;;-4.34;70.00;100306.83;87506;1285;100113;-68
2022/01/08 03:01:43;;;;;;;20.80;9.30;;;;;;;-4.39;70.19;100305.58;87287;1287;88763;-70
2022/01/08 03:03:52;;;;;;;24.90;10.80;;;;;;;-4.44;70.19;100299.02;87490;1285;95760;-70
2022/01/08 03:05:58;;;;;;;22.10;9.90;;;;;;;-4.46;70.18;100301.27;87493;1285;78966;-74
2022/01/08 03:08:04;;;;;;;22.60;11.20;;;;;;;-4.50;70.11;100300.34;87530;1285;82564;-70
2022/01/08 03:10:17;;;;;;;22.00;10.20;;;;;;;-4.54;70.44;100304.09;87485;1285;100391;-69
2022/01/08 03:12:27;;;;;;;23.60;10.50;;;;;;;-4.58;70.45;100307.33;87531;1285;86280;-68
2022/01/08 03:14:33;;;;;;;22.70;10.90;;;;;;;-4.59;70.51;100309.30;87501;1285;96182;-70
2022/01/08 03:16:39;;;;;;;24.40;10.70;;;;;;;-4.57;70.43;100308.50;87484;1284;82066;-70
2022/01/08 03:18:47;;;;;;;23.40;11.20;;;;;;;-4.53;70.33;100313.83;87385;1286;79507;-70
2022/01/08 03:21:01;;;;;;;24.20;10.30;;;;;;;-4.47;70.45;100319.42;87501;1285;99449;-71
2022/01/08 03:23:13;;;;;;;21.80;10.80;;;;;;;-4.38;70.52;100309.21;87528;1285;86581;-72
2022/01/08 03:25:19;;;;;;;25.60;10.60;;;;;;;-4.30;70.51;100311.15;87489;1285;94209;-68
2022/01/08 03:27:25;;;;;;;23.80;10.80;;;;;;;-4.25;70.73;100312.19;87522;1285;76431;-71
2022/01/08 03:29:34;;;;;;;23.50;11.80;;;;;;;-4.22;70.25;100308.14;87528;1285;82272;-67
2022/01/08 03:31:43;;;;;;;26.60;12.10;;;;;;;-4.25;70.33;100303.61;87511;1285;99855;-67
2022/01/08 03:33:54;;;;;;;26.40;11.20;;;;;;;-4.25;70.14;100298.17;87378;1287;87850;-69
2022/01/08 03:36:00;;;;;;;22.10;10.50;;;;;;;-4.26;70.42;100295.95;87463;1285;93797;-71
2022/01/08 03:38:05;;;;;;;25.70;11.00;;;;;;;-4.27;70.08;100297.59;87498;1285;81546;-70
2022/01/08 03:40:13;;;;;;;24.00;11.50;;;;;;;-4.28;69.99;100297.16;87530;1285;80890;-68
2022/01/08 03:42:22;;;;;;;23.10;11.80;;;;;;;-4.31;70.18;100292.91;87522;1285;96463;-68
2022/01/08 03:44:29;;;;;;;24.20;11.10;;;;;;;-4.32;70.26;100287.33;87521;1285;88492;-68
2022/01/08 03:46:36;;;;;;;23.70;10.50;;;;;;;-4.39;70.13;100286.59;87505;1285;95841;-68
2022/01/08 03:48:46;;;;;;;21.80;10.10;;;;;;;-4.47;70.03;100286.05;87535;1285;79835;-71
2022/01/08 03:50:53;;;;;;;22.00;11.40;;;;;;;-4.53;70.18;100286.63;87390;1288;80796;-71
2022/01/08 03:52:58;;;;;;;28.30;11.40;;;;;;;-4.58;70.23;100285.36;87524;1285;96601;-69
2022/01/08 03:55:05;;;;;;;24.50;11.60;;;;;;;-4.59;70.23;100286.61;87494;1285;88531;-69
2022/01/08 03:57:11;;;;;;;24.90;11.70;;;;;;;-4.61;70.45;100280.27;87505;1285;95297;-70
2022/01/08 03:59:20;;;;;;;24.00;11.40;;;;;;;-4.64;70.44;100278.70;87512;1285;81640;-67
2022/01/08 04:01:28;;;;;;;30.30;12.40;;;;;;;-4.66;70.32;100274.98;87513;1285;80440;-69
2022/01/08 04:03:40;;;;;;;22.90;11.30;;;;;;;-4.69;70.47;100275.70;87235;1285;99214;-68
2022/01/08 04:05:47;;;;;;;21.50;10.00;;;;;;;-4.76;70.55;100276.17;87527;1285;88610;-69
2022/01/08 04:07:52;;;;;;;27.50;11.70;;;;;;;-4.81;70.37;100268.58;87517;1285;93130;-68
2022/01/08 04:09:58;;;;;;;28.70;11.80;;;;;;;-4.86;70.69;100264.86;87496;1285;77853;-69
2022/01/08 04:12:07;;;;;;;25.90;12.30;;;;;;;-4.91;70.81;100262.33;87520;1285;81021;-69
2022/01/08 04:14:15;;;;;;;26.60;11.90;;;;;;;-4.91;70.89;100262.70;87535;1285;97019;-67
2022/01/08 04:16:28;;;;;;;29.10;12.60;;;;;;;-4.90;70.96;100271.41;87549;1285;88036;-67
2022/01/08 04:18:37;;;;;;;24.80;12.10;;;;;;;-4.84;70.95;100273.30;87494;1285;94547;-69
2022/01/08 04:20:58;;;;;;;24.70;11.60;;;;;;;-4.77;70.93;100275.00;87523;1285;79284;-71
2022/01/08 04:23:04;;;;;;;26.50;11.40;;;;;;;-4.68;71.17;100268.08;87539;1285;81925;-71
2022/01/08 04:25:14;;;;;;;27.20;11.60;;;;;;;-4.67;71.11;100269.22;87481;1285;97404;-68
2022/01/08 04:27:24;;;;;;;25.70;12.50;;;;;;;-4.65;71.20;100263.51;87509;1285;87775;-67
2022/01/08 04:29:30;;;;;;;25.50;11.50;;;;;;;-4.61;71.04;100262.38;87486;1285;95823;-69
2022/01/08 04:31:36;;;;;;;26.60;12.00;;;;;;;-4.62;71.00;100262.06;87510;1285;77356;-71
2022/01/08 04:33:42;;;;;;;27.90;12.30;;;;;;;-4.63;71.04;100262.64;87537;1285;82773;-68
2022/01/08 04:35:48;;;;;;;28.70;12.50;;;;;;;-4.65;71.00;100259.96;87524;1285;99489;-68
2022/01/08 04:37:54;;;;;;;29.00;13.70;;;;;;;-4.64;70.96;100254.48;87500;1285;89416;-67
2022/01/08 04:40:04;;;;;;;29.40;13.50;;;;;;;-4.63;70.97;100255.65;87361;1287;95456;-70
2022/01/08 04:42:10;;;;;;;27.90;12.60;;;;;;;-4.65;71.08;100251.70;87502;1285;80616;-69
2022/01/08 04:44:17;;;;;;;25.40;13.20;;;;;;;-4.70;70.98;100253.81;87522;1285;82412;-69
2022/01/08 04:46:22;;;;;;;28.40;12.80;;;;;;;-4.78;71.20;100253.45;87532;1284;100074;-68
2022/01/08 04:48:28;;;;;;;31.70;13.20;;;;;;;-4.83;71.19;100254.08;87488;1285;88899;-68
2022/01/08 04:50:37;;;;;;;29.20;12.90;;;;;;;-4.86;71.24;100252.53;87499;1285;95890;-70
2022/01/08 04:52:43;;;;;;;24.60;12.50;;;;;;;-4.90;71.21;100253.30;87565;1285;78733;-70
2022/01/08 04:54:49;;;;;;;28.30;13.40;;;;;;;-4.93;71.40;100256.29;87528;1285;81143;-70
2022/01/08 04:56:55;;;;;;;26.60;12.60;;;;;;;-4.96;71.40;100260.03;87361;1287;99784;-69
2022/01/08 04:59:01;;;;;;;31.50;13.70;;;;;;;-4.99;71.42;100254.43;87511;1285;87839;-69
2022/01/08 05:01:13;;;;;;;29.00;14.30;;;;;;;-5.01;71.37;100252.09;87524;1285;95585;-71
2022/01/08 05:03:18;;;;;;;29.80;13.20;;;;;;;-4.99;71.56;100250.76;87518;1285;82230;-69
2022/01/08 05:05:25;;;;;;;26.50;13.00;;;;;;;-5.04;71.34;100246.29;87505;1285;84530;-69
2022/01/08 05:07:31;;;;;;;29.50;14.00;;;;;;;-5.07;71.53;100245.44;87506;1285;99552;-72
2022/01/08 05:09:40;;;;;;;27.40;15.00;;;;;;;-5.04;71.79;100241.92;87528;1285;89026;-69
2022/01/08 05:11:48;;;;;;;29.70;14.40;;;;;;;-5.00;71.99;100240.98;87475;1285;94110;-69
2022/01/08 05:13:54;;;;;;;27.40;14.10;;;;;;;-4.94;72.10;100238.13;87516;1285;78859;-69
2022/01/08 05:16:03;;;;;;;28.30;13.40;;;;;;;-4.87;71.99;100243.30;87479;1285;81411;-68
2022/01/08 05:18:10;;;;;;;32.70;14.10;;;;;;;-4.82;71.79;100245.43;87511;1285;99308;-70
2022/01/08 05:20:16;;;;;;;30.60;13.00;;;;;;;-4.81;72.02;100243.26;87545;1284;89295;-69
2022/01/08 05:22:25;;;;;;;31.90;15.00;;;;;;;-4.81;71.91;100242.38;87464;1285;95300;-69
2022/01/08 05:24:30;;;;;;;29.60;13.90;;;;;;;-4.84;72.03;100241.34;87245;1287;80820;-69
2022/01/08 05:26:37;;;;;;;29.60;13.70;;;;;;;-4.86;71.99;100239.51;87527;1285;81060;-69
2022/01/08 05:28:44;;;;;;;28.90;13.80;;;;;;;-4.88;71.78;100237.37;87520;1285;97498;-67
2022/01/08 05:30:50;;;;;;;29.20;13.90;;;;;;;-4.88;71.87;100236.85;87109;1290;87947;-67
2022/01/08 05:32:56;;;;;;;28.40;13.90;;;;;;;-4.92;71.91;100234.67;87514;1285;93873;-66
2022/01/08 05:35:02;;;;;;;27.80;13.50;;;;;;;-4.96;71.95;100231.23;87488;1285;78798;-70
2022/01/08 05:37:09;;;;;;;28.70;13.10;;;;;;;-5.01;71.93;100233.27;87530;1285;82092;-71
2022/01/08 05:39:18;;;;;;;31.20;13.70;;;;;;;-5.06;72.10;100236.93;87532;1285;98036;-69
2022/01/08 05:41:23;;;;;;;27.10;13.10;;;;;;;-5.11;71.95;100238.65;87496;1285;89131;-69
2022/01/08 05:43:30;;;;;;;31.20;15.40;;;;;;;-5.13;72.07;100242.46;87510;1285;93650;-70
2022/01/08 05:45:36;;;;;;;33.90;14.60;;;;;;;-5.15;72.15;100242.06;87500;1285;77149;-70
2022/01/08 05:47:42;;;;;;;27.00;14.10;;;;;;;-5.18;72.12;100239.14;87506;1285;82800;-69
2022/01/08 05:49:48;;;;;;;30.50;14.10;;;;;;;-5.23;72.12;100237.14;87522;1285;100216;-66
2022/01/08 05:51:54;;;;;;;30.70;13.90;;;;;;;-5.23;72.08;100239.41;87536;1285;87442;-70
2022/01/08 05:54:00;;;;;;;29.90;13.60;;;;;;;-5.29;72.19;100239.27;87460;1285;96227;-67
2022/01/08 05:56:09;;;;;;;27.10;14.10;;;;;;;-5.34;72.14;100236.92;87482;1285;81259;-67
2022/01/08 05:58:15;;;;;;;31.10;14.70;;;;;;;-5.34;72.31;100238.69;87490;1285;83267;-68
2022/01/08 06:00:22;;;;;;;31.20;15.00;;;;;;;-5.30;72.29;100242.31;87541;1285;98716;-69
2022/01/08 06:02:28;;;;;;;31.30;13.60;;;;;;;-5.25;72.57;100240.05;87519;1285;88780;-69
2022/01/08 06:04:34;;;;;;;33.70;14.60;;;;;;;-5.13;72.53;100241.44;87520;1285;94730;-67
2022/01/08 06:06:40;;;;;;;28.40;14.10;;;;;;;-5.05;72.50;100239.52;87514;1285;76610;-65
2022/01/08 06:08:45;;;;;;;28.40;13.90;;;;;;;-4.96;72.17;100243.34;87551;1285;82909;-67
2022/01/08 06:10:52;;;;;;;27.50;13.40;;;;;;;-4.95;72.45;100243.27;87403;1286;98762;-67
2022/01/08 06:12:58;;;;;;;31.60;14.30;;;;;;;-4.97;72.41;100241.59;87494;1285;87349;-67
2022/01/08 06:15:07;;;;;;;32.20;14.50;;;;;;;-4.95;72.29;100239.08;87506;1285;95688;-67
2022/01/08 06:17:15;;;;;;;30.70;14.30;;;;;;;-4.94;72.14;100237.79;87506;1285;79085;-67
2022/01/08 06:19:21;;;;;;;31.70;15.60;;;;;;;-4.96;72.25;100234.90;87501;1285;82506;-67
2022/01/08 06:21:27;;;;;;;31.90;14.10;;;;;;;-4.98;72.14;100233.30;87537;1285;99865;-69
2022/01/08 06:23:42;;;;;;;28.60;13.80;;;;;;;-5.05;71.99;100240.02;87498;1285;89662;-67
2022/01/08 06:25:48;;;;;;;32.20;14.30;;;;;;;-5.09;72.29;100239.59;87491;1286;93412;-68
2022/01/08 06:27:57;;;;;;;30.80;15.10;;;;;;;-5.13;72.00;100239.35;87386;1288;80115;-68
2022/01/08 06:30:04;;;;;;;30.40;13.80;;;;;;;-5.16;72.21;100236.90;87542;1285;80505;-68
2022/01/08 06:32:11;;;;;;;27.80;13.50;;;;;;;-5.20;72.24;100241.14;87505;1285;98114;-66
2022/01/08 06:34:17;;;;;;;28.20;13.60;;;;;;;-5.25;72.35;100237.95;87493;1285;89185;-68
2022/01/08 06:36:23;;;;;;;29.90;14.30;;;;;;;-5.30;72.45;100238.64;87376;1287;95070;-68
2022/01/08 06:38:29;;;;;;;31.60;14.60;;;;;;;-5.32;72.53;100241.20;87412;1287;79591;-60
2022/01/08 06:40:39;;;;;;;34.10;14.80;;;;;;;-5.33;72.69;100234.24;87532;1285;81721;-65
2022/01/08 06:42:45;;;;;;;27.70;13.70;;;;;;;-5.35;72.69;100235.58;87497;1285;99472;-67
2022/01/08 06:44:53;;;;;;;31.80;14.20;;;;;;;-5.33;72.66;100232.00;87431;1287;86583;-67
2022/01/08 06:47:00;;;;;;;32.90;14.50;;;;;;;-5.33;72.80;100236.18;87495;1285;93581;-66
2022/01/08 06:49:05;;;;;;;30.70;14.40;;;;;;;-5.31;72.79;100233.23;87513;1285;79919;-68
2022/01/08 06:51:14;;;;;;;33.10;14.50;;;;;;;-5.23;72.93;100234.88;87512;1285;82663;-66
2022/01/08 06:53:21;;;;;;;29.70;14.40;;;;;;;-5.16;72.91;100239.49;87504;1285;99489;-66
2022/01/08 06:55:27;;;;;;;33.80;15.60;;;;;;;-5.07;72.97;100236.48;87511;1285;89388;-69
2022/01/08 06:57:33;;;;;;;32.10;14.60;;;;;;;-4.97;72.85;100236.35;87249;1287;95545;-68
2022/01/08 06:59:42;;;;;;;32.40;14.90;;;;;;;-4.92;72.89;100239.75;87477;1285;78816;-66
2022/01/08 07:01:48;;;;;;;31.90;14.90;;;;;;;-4.84;72.74;100239.07;87229;1287;80646;-67
2022/01/08 07:03:55;;;;;;;31.00;15.10;;;;;;;-4.85;72.47;100236.83;87487;1285;99805;-69
2022/01/08 07:06:05;;;;;;;33.40;14.80;;;;;;;-4.86;72.59;100233.92;87536;1285;87497;-67
2022/01/08 07:08:11;;;;;;;31.10;15.90;;;;;;;-4.86;72.48;100233.57;87497;1285;95735;-68
2022/01/08 07:10:19;;;;;;;31.80;15.80;;;;;;;-4.87;72.47;100235.58;87478;1285;78935;-67
2022/01/08 07:12:25;;;;;;;31.40;15.30;;;;;;;-4.87;72.51;100232.58;87483;1285;82696;-66
2022/01/08 07:14:31;;;;;;;30.70;14.60;;;;;;;-4.88;72.67;100229.80;87484;1285;98298;-68
2022/01/08 07:16:37;;;;;;;35.10;15.40;;;;;;;-4.89;72.44;100233.94;87491;1286;88430;-68
2022/01/08 07:18:43;;;;;;;34.20;15.60;;;;;;;-4.90;72.49;100235.77;87507;1285;94958;-67
2022/01/08 07:20:49;;;;;;;32.30;15.10;;;;;;;-4.91;72.84;100233.91;87214;1287;78287;-65
2022/01/08 07:22:55;;;;;;;38.30;16.10;;;;;;;-4.91;72.61;100234.26;87289;1287;83089;-67
2022/01/08 07:25:03;;;;;;;34.20;16.00;;;;;;;-4.89;72.50;100230.79;87506;1286;98663;-68
2022/01/08 07:27:09;;;;;;;30.70;15.70;;;;;;;-4.87;72.45;100226.45;87504;1285;85742;-67
2022/01/08 07:29:15;;;;;;;32.00;16.10;;;;;;;-4.83;72.31;100221.45;87450;1285;94960;-67
2022/01/08 07:31:24;;;;;;;33.70;17.50;;;;;;;-4.79;72.60;100221.14;87485;1285;77788;-66
2022/01/08 07:33:33;;;;;;;33.50;16.10;;;;;;;-4.74;72.43;100214.92;87489;1285;83213;-67
2022/01/08 07:35:40;;;;;;;33.70;16.30;;;;;;;-4.67;72.45;100216.73;87497;1286;98525;-67
2022/01/08 07:37:46;;;;;;;30.90;14.40;;;;;;;-4.47;72.41;100219.98;87493;1285;88642;-66
2022/01/08 07:39:56;;;;;;;33.40;16.10;;;;;;;-4.08;72.67;100219.30;87448;1285;93919;-69
2022/01/08 07:42:06;;;;;;;34.70;16.40;;;;;;;-3.72;72.49;100212.51;87504;1286;80621;-67
2022/01/08 07:44:14;;;;;;;32.30;15.30;;;;;;;-3.50;71.96;100206.59;87519;1285;79926;-67
2022/01/08 07:46:22;;;;;;;33.60;16.50;;;;;;;-2.69;72.12;100200.48;87485;1285;98217;-69
2022/01/08 07:48:29;;;;;;;32.20;16.20;;;;;;;-1.50;71.55;100197.95;87488;1286;89558;-69
2022/01/08 07:50:40;;;;;;;31.70;16.70;;;;;;;-0.47;70.55;100200.36;87515;1285;92924;-70
2022/01/08 07:52:50;;;;;;;31.80;17.20;;;;;;;0.35;69.75;100192.59;87501;1285;79618;-67
2022/01/08 07:54:57;;;;;;;30.60;15.80;;;;;;;0.91;68.32;100192.02;87517;1285;82347;-66
2022/01/08 07:57:03;;;;;;;30.90;16.40;;;;;;;1.22;67.73;100195.27;87511;1285;99942;-67
2022/01/08 07:59:09;;;;;;;34.20;17.90;;;;;;;1.51;66.64;100196.35;87499;1285;86755;-67
2022/01/08 08:01:15;;;;;;;32.50;16.80;;;;;;;1.62;65.89;100195.01;87482;1285;95361;-66
2022/01/08 08:03:22;;;;;;;30.10;17.10;;;;;;;1.61;65.69;100195.30;87218;1287;81255;-67
2022/01/08 08:05:30;;;;;;;31.30;16.70;;;;;;;1.58;64.29;100198.45;87533;1285;82200;-67
2022/01/08 08:07:41;;;;;;;31.20;16.90;;;;;;;1.67;64.71;100197.42;87485;1285;99194;-68
2022/01/08 08:09:47;;;;;;;28.60;17.20;;;;;;;1.71;63.97;100197.23;87503;1285;86907;-67
2022/01/08 08:12:01;;;;;;;33.20;18.60;;;;;;;1.90;63.10;100192.15;87469;1285;94966;-67
2022/01/08 08:14:10;;;;;;;28.60;16.90;;;;;;;2.10;62.90;100191.69;87233;1287;77572;-67
2022/01/08 08:16:16;;;;;;;27.70;17.00;;;;;;;2.53;62.24;100194.14;87497;1285;81434;-67
2022/01/08 08:18:22;;;;;;;33.50;19.10;;;;;;;2.62;62.38;100186.80;87478;1285;99603;-67
2022/01/08 08:20:31;;;;;;;29.50;17.60;;;;;;;2.24;61.62;100181.00;87528;1285;89577;-67
2022/01/08 08:22:37;;;;;;;28.80;17.10;;;;;;;1.75;61.69;100179.85;87513;1285;93490;-66
2022/01/08 08:24:43;;;;;;;29.30;16.20;;;;;;;1.23;61.93;100185.27;87456;1285;77648;-67
2022/01/08 08:26:49;;;;;;;28.10;17.00;;;;;;;0.95;62.47;100192.55;87471;1287;81141;-67
2022/01/08 08:28:55;;;;;;;29.20;17.00;;;;;;;0.74;62.54;100191.34;87434;1287;99978;-68
2022/01/08 08:31:01;;;;;;;26.80;15.90;;;;;;;0.46;62.95;100196.77;87501;1286;87099;-67
2022/01/08 08:33:07;;;;;;;27.20;16.10;;;;;;;0.31;62.62;100195.27;87485;1285;94549;-67
2022/01/08 08:35:13;;;;;;;28.80;16.20;;;;;;;0.02;63.12;100193.48;87508;1285;77683;-65
2022/01/08 08:37:22;;;;;;;155.00;92.10;;;;;;;-0.19;63.20;100189.86;87479;1285;83543;-68
2022/01/08 08:39:31;;;;;;;82.30;50.10;;;;;;;-0.35;63.33;100188.93;87503;1285;100150;-67
2022/01/08 08:41:40;;;;;;;37.50;22.30;;;;;;;-0.42;63.58;100192.04;87514;1285;89058;-67
2022/01/08 08:43:46;;;;;;;29.90;16.90;;;;;;;-0.30;63.66;100189.42;87418;1286;95356;-67
2022/01/08 08:45:52;;;;;;;27.70;16.50;;;;;;;0.09;63.61;100188.83;87455;1286;78376;-67
2022/01/08 08:47:58;;;;;;;32.40;16.40;;;;;;;0.26;63.55;100185.43;87197;1288;80787;-68
2022/01/08 08:50:11;;;;;;;28.00;15.40;;;;;;;0.33;63.09;100186.94;87476;1287;98053;-68
2022/01/08 08:52:17;;;;;;;30.60;16.00;;;;;;;0.35;63.20;100189.08;87456;1287;87389;-67
2022/01/08 08:54:23;;;;;;;28.60;16.70;;;;;;;0.35;63.40;100192.10;87460;1287;95694;-69
2022/01/08 08:56:31;;;;;;;27.20;16.20;;;;;;;0.36;63.44;100190.35;87446;1287;79781;-68
2022/01/08 08:58:37;;;;;;;30.00;17.30;;;;;;;0.42;63.32;100188.08;87463;1287;81846;-68
2022/01/08 09:00:44;;;;;;;31.00;16.70;;;;;;;0.40;63.65;100193.06;87437;1286;99645;-66
2022/01/08 09:02:53;;;;;;;31.80;16.70;;;;;;;0.45;63.76;100183.05;87483;1285;87204;-67
2022/01/08 09:04:59;;;;;;;29.00;16.50;;;;;;;0.61;63.53;100183.28;87266;1287;93947;-67
2022/01/08 09:07:05;;;;;;;28.90;16.60;;;;;;;0.51;63.65;100176.17;87249;1286;77882;-65
2022/01/08 09:09:14;;;;;;;28.20;16.90;;;;;;;0.47;63.57;100177.55;87437;1286;81390;-65
2022/01/08 09:11:23;;;;;;;29.60;16.90;;;;;;;0.48;63.81;100176.41;87435;1287;99780;-67
2022/01/08 09:13:32;;;;;;;31.50;17.00;;;;;;;0.82;63.85;100172.05;87461;1288;90523;-65
2022/01/08 09:15:42;;;;;;;29.00;16.00;;;;;;;0.89;63.65;100172.46;87431;1286;95112;-69
2022/01/08 09:17:48;;;;;;;28.60;16.50;;;;;;;0.96;63.49;100168.34;87456;1286;77225;-70
2022/01/08 09:19:54;;;;;;;34.80;18.90;;;;;;;1.33;63.27;100158.46;87474;1287;83088;-69
2022/01/08 09:22:05;;;;;;;27.90;17.20;;;;;;;1.52;62.90;100157.98;87430;1286;99211;-67
2022/01/08 09:24:12;;;;;;;32.40;17.80;;;;;;;1.66;62.65;100155.95;87450;1287;87972;-69
2022/01/08 09:26:21;;;;;;;28.10;16.30;;;;;;;1.84;62.66;100149.56;87435;1287;95446;-69
2022/01/08 09:28:31;;;;;;;28.30;16.00;;;;;;;1.77;62.57;100153.38;87196;1288;77857;-68
2022/01/08 09:30:38;;;;;;;28.00;16.30;;;;;;;1.53;63.06;100155.20;87474;1286;82752;-68
2022/01/08 09:32:45;;;;;;;26.20;15.80;;;;;;;1.70;62.01;100153.98;87452;1288;97581;-67
2022/01/08 09:34:51;;;;;;;27.90;15.70;;;;;;;1.51;61.39;100155.92;87457;1287;89411;-67
2022/01/08 09:37:01;;;;;;;30.30;15.70;;;;;;;1.47;61.90;100151.05;87230;1288;95220;-66
2022/01/08 09:39:07;;;;;;;30.40;16.00;;;;;;;1.34;62.34;100154.16;87450;1287;77885;-67
2022/01/08 09:41:16;;;;;;;26.10;14.40;;;;;;;1.38;62.36;100157.48;87459;1287;82488;-66
2022/01/08 09:43:22;;;;;;;25.40;15.50;;;;;;;1.36;62.62;100158.39;87433;1287;98392;-65
2022/01/08 09:45:28;;;;;;;27.60;15.70;;;;;;;1.41;62.49;100152.94;87447;1286;89896;-67
2022/01/08 09:47:35;;;;;;;26.40;15.30;;;;;;;1.46;62.35;100155.55;87191;1287;95588;-66
2022/01/08 09:49:41;;;;;;;24.50;14.90;;;;;;;1.51;62.03;100152.86;87460;1287;80005;-67
2022/01/08 09:51:50;;;;;;;29.10;16.30;;;;;;;1.53;61.89;100153.64;87466;1285;83396;-65
2022/01/08 09:53:56;;;;;;;28.80;15.50;;;;;;;1.48;62.00;100155.73;87440;1287;98777;-67
2022/01/08 09:56:04;;;;;;;29.80;15.80;;;;;;;1.45;62.26;100153.64;87461;1287;89238;-66
2022/01/08 09:58:11;;;;;;;26.60;15.30;;;;;;;1.47;62.01;100153.45;87462;1286;94326;-66